Flight Track Log - Related Links

Times and Time Zones

All times are in EDT time to prevent confusion due to time zone crossing. See the EJA122 flight status page for this flight to view local times or setup timezone preferences in your user account.

Time Position Orientation Groundspeed Altitude Reporting Facility
EDT Latitude Longitude Course Direction KTS MPH feet Rate Location/Type
Sun 11:42:21 AM 41.4125 -106.7872 116° Southeast 315 362 13,500  Level Denver Center
Sun 11:43:23 AM 41.3778 -106.6781 113° Southeast 334 384 15,700 1,887 Climbing Denver Center
Sun 11:44:25 AM 41.3283 -106.5522 118° Southeast 341 392 17,400 871 Climbing Denver Center
Sun 11:45:27 AM 41.2828 -106.4361 118° Southeast 366 421 17,500 194 Climbing Denver Center
Sun 11:46:29 AM 41.2214 -106.2878 119° Southeast 407 468 17,800 629 Climbing Denver Center
Sun 11:47:00 AM 41.1802 -106.3270 116° Southeast  Level Estimated
Sun 11:47:31 AM 41.1669 -106.1517 118° Southeast 408 470 18,800  Level Denver Center
Sun 11:48:33 AM 41.1169 -106.0278 118° Southeast 401 461 20,200 1,268 Climbing Denver Center
Sun 11:49:34 AM 41.0761 -105.9267 118° Southeast 394 453 21,400 1,452 Climbing Denver Center
Sun 11:50:37 AM 41.0139 -105.7733 118° Southeast 394 453 23,200 1,680 Climbing Denver Center
Sun 11:51:39 AM 40.9506 -105.6189 118° Southeast 397 457 24,900 1,306 Climbing Denver Center
Sun 11:52:41 AM 40.8964 -105.4900 119° Southeast 400 460 25,900 919 Climbing Denver Center
Sun 11:53:43 AM 40.8411 -105.3539 118° Southeast 417 480 26,800 532 Climbing Denver Center
Sun 11:54:45 AM 40.7831 -105.2158 119° Southeast 428 493 27,000 97 Climbing Denver Center
Sun 11:55:47 AM 40.7194 -105.0669 119° Southeast 463 533 27,000  Level Denver Center
Sun 11:56:49 AM 40.6697 -104.9450 118° Southeast 471 542 27,000  Level Denver Center
Sun 11:57:51 AM 40.5917 -104.7597 119° Southeast 482 555 27,000  Level Denver Center
Sun 11:58:53 AM 40.5256 -104.6047 119° Southeast 482 555 27,000  Level Denver Center
Sun 11:59:56 AM 40.4281 -104.4333 127° Southeast 488 562 27,000  Level Denver Center
Sun 12:00:57 PM 40.3419 -104.2967 130° Southeast 485 558 27,000  Level Denver Center
Sun 12:01:59 PM 40.2589 -104.1661 130° Southeast 470 541 27,000  Level Denver Center
Sun 12:03:02 PM 40.1819 -104.0458 130° Southeast 433 498 27,000  Level Denver Center
Sun 12:04:03 PM 40.1200 -103.9542 131° Southeast 421 484 27,000  Level Denver Center
Sun 12:05:06 PM 40.0200 -103.7872 128° Southeast 418 481 27,000  Level Denver Center
Sun 12:06:08 PM 39.9786 -103.6481 111° Southeast 409 471 27,000  Level Denver Center
Sun 12:07:10 PM 39.9369 -103.5064 111° Southeast 418 481 27,000  Level Denver Center
Sun 12:08:12 PM 39.8950 -103.3656 111° Southeast 419 482 27,000  Level Denver Center
Sun 12:09:14 PM 39.8531 -103.2242 111° Southeast 420 483 27,000  Level Denver Center
Sun 12:10:16 PM 39.8119 -103.0853 111° Southeast 414 476 27,000  Level Denver Center
Sun 12:11:18 PM 39.7708 -102.9494 111° Southeast 406 467 27,000  Level Denver Center
Sun 12:12:20 PM 39.7225 -102.7883 111° Southeast 400 460 27,000  Level Denver Center
Sun 12:13:22 PM 39.6819 -102.6514 111° Southeast 399 459 27,000  Level Denver Center
Sun 12:14:24 PM 39.6436 -102.5250 111° Southeast 395 455 27,000  Level Denver Center
Sun 12:15:26 PM 39.6025 -102.3908 112° Southeast 394 453 27,000  Level Denver Center
Sun 12:16:28 PM 39.5608 -102.2536 111° Southeast 390 449 27,000  Level Denver Center
Sun 12:17:30 PM 39.5147 -102.1064 112° Southeast 395 455 27,000  Level Denver Center
Sun 12:18:32 PM 39.4778 -101.9828 111° Southeast 390 449 27,000  Level Denver Center
Sun 12:19:34 PM 39.4322 -101.8367 112° Southeast 392 451 27,000  Level Denver Center
Sun 12:20:36 PM 39.3850 -101.7181 117° Southeast 391 450 27,000  Level Denver Center
Sun 12:21:38 PM 39.2894 -101.6267 143° Southeast 387 445 27,000  Level Denver Center
Sun 12:22:40 PM 39.2003 -101.5664 152° Southeast 379 436 27,000  Level Denver Center
Sun 12:23:43 PM 39.0956 -101.4967 153° Southeast 380 437 27,000  Level Denver Center
Sun 12:24:56 PM 39.0022 -101.4322 152° Southeast 389 448 27,000 -485 Level Denver Center
Sun 12:25:59 PM 38.8794 -101.3517 153° Southeast 391 450 25,900 -968 Descending Denver Center
Sun 12:27:00 PM 38.7978 -101.2975 153° Southeast 411 473 25,000 -435 Descending Denver Center
Sun 12:28:03 PM 38.6678 -101.2103 152° Southeast 411 473 25,000 -240 Level Denver Center
Sun 12:29:05 PM 38.5719 -101.1472 153° Southeast 406 467 24,500 -919 Descending Denver Center
Sun 12:30:07 PM 38.4881 -101.0906 152° Southeast 424 488 23,100 -2,177 Descending Denver Center
Sun 12:31:09 PM 38.3583 -101.0061 153° Southeast 408 470 20,000 -2,656 Descending Denver Center
Sun 12:32:18 PM 38.2522 -100.9356 152° Southeast 389 448 17,300 -2,545 Descending Kansas City Center
Sun 12:33:21 PM 38.1536 -100.8722 153° Southeast 364 419 14,400 -2,688 Descending Kansas City Center
Sun 12:34:23 PM 38.0769 -100.8411 162° South 318 366 11,700 -2,806 Descending Kansas City Center
Sun 12:35:25 PM 37.9964 -100.8078 162° South 287 330 8,600 -2,903 Descending Kansas City Center
Sun 12:36:27 PM 37.9314 -100.7811 162° South 269 310 5,700 -1,887 Descending Kansas City Center
Sun 12:37:29 PM 37.8711 -100.7589 164° South 249 287 4,700 -1,016 Descending Kansas City Center
Sun 12:38:31 PM 37.8778 -100.7242 76° East 181 208 3,600 -823 Descending Kansas City Center
Sun 12:39:33 PM 37.9139 -100.7233 North 151 174 3,000 -581 Descending Kansas City Center

Login

Don't have an account? Register now (free) for customized features, flight alerts, and more!